sensor_id;sensor_type;location;lat;lon;timestamp;P1;durP1;ratioP1;P2;durP2;ratioP2
76667;SDS011;65585;51.166;16.922;2023-05-10T00:01:55;6.32;;;4.90;;
76667;SDS011;65585;51.166;16.922;2023-05-10T00:04:22;6.88;;;4.53;;
76667;SDS011;65585;51.166;16.922;2023-05-10T00:06:48;7.80;;;4.55;;
76667;SDS011;65585;51.166;16.922;2023-05-10T00:09:14;7.60;;;4.72;;
76667;SDS011;65585;51.166;16.922;2023-05-10T00:11:40;7.20;;;4.88;;
76667;SDS011;65585;51.166;16.922;2023-05-10T00:14:06;10.85;;;5.00;;
76667;SDS011;65585;51.166;16.922;2023-05-10T00:16:32;8.55;;;4.68;;
76667;SDS011;65585;51.166;16.922;2023-05-10T00:19:00;6.10;;;4.25;;
76667;SDS011;65585;51.166;16.922;2023-05-10T00:21:26;6.95;;;4.53;;
76667;SDS011;65585;51.166;16.922;2023-05-10T00:23:54;7.25;;;4.78;;
76667;SDS011;65585;51.166;16.922;2023-05-10T00:26:20;8.52;;;5.05;;
76667;SDS011;65585;51.166;16.922;2023-05-10T00:28:47;7.50;;;4.68;;
76667;SDS011;65585;51.166;16.922;2023-05-10T00:31:13;7.88;;;4.47;;
76667;SDS011;65585;51.166;16.922;2023-05-10T00:33:40;6.75;;;4.68;;
76667;SDS011;65585;51.166;16.922;2023-05-10T00:36:06;7.43;;;5.03;;
76667;SDS011;65585;51.166;16.922;2023-05-10T00:38:33;7.22;;;4.43;;
76667;SDS011;65585;51.166;16.922;2023-05-10T00:40:59;7.53;;;5.22;;
76667;SDS011;65585;51.166;16.922;2023-05-10T00:43:25;7.65;;;4.75;;
76667;SDS011;65585;51.166;16.922;2023-05-10T00:45:51;7.35;;;5.05;;
76667;SDS011;65585;51.166;16.922;2023-05-10T00:48:18;6.22;;;4.47;;
76667;SDS011;65585;51.166;16.922;2023-05-10T00:50:45;13.65;;;5.78;;
76667;SDS011;65585;51.166;16.922;2023-05-10T00:53:11;8.40;;;5.35;;
76667;SDS011;65585;51.166;16.922;2023-05-10T00:55:37;7.40;;;5.97;;
76667;SDS011;65585;51.166;16.922;2023-05-10T00:58:04;7.13;;;4.88;;
76667;SDS011;65585;51.166;16.922;2023-05-10T01:00:30;8.38;;;5.40;;
76667;SDS011;65585;51.166;16.922;2023-05-10T01:02:58;7.28;;;5.10;;
76667;SDS011;65585;51.166;16.922;2023-05-10T01:05:24;10.32;;;4.88;;
76667;SDS011;65585;51.166;16.922;2023-05-10T01:10:18;7.75;;;5.05;;
76667;SDS011;65585;51.166;16.922;2023-05-10T01:12:45;10.00;;;5.55;;
76667;SDS011;65585;51.166;16.922;2023-05-10T01:15:12;7.50;;;5.47;;
76667;SDS011;65585;51.166;16.922;2023-05-10T01:17:40;8.77;;;5.15;;
76667;SDS011;65585;51.166;16.922;2023-05-10T01:20:08;6.78;;;5.30;;
76667;SDS011;65585;51.166;16.922;2023-05-10T01:25:23;8.30;;;5.47;;
76667;SDS011;65585;51.166;16.922;2023-05-10T01:36:06;7.40;;;4.90;;
76667;SDS011;65585;51.166;16.922;2023-05-10T01:38:53;10.70;;;6.15;;
76667;SDS011;65585;51.166;16.922;2023-05-10T01:46:40;9.73;;;6.53;;
76667;SDS011;65585;51.166;16.922;2023-05-10T01:49:29;12.45;;;6.50;;
76667;SDS011;65585;51.166;16.922;2023-05-10T01:51:59;8.02;;;5.78;;
76667;SDS011;65585;51.166;16.922;2023-05-10T01:54:29;7.72;;;5.65;;
76667;SDS011;65585;51.166;16.922;2023-05-10T01:56:56;9.55;;;5.47;;
76667;SDS011;65585;51.166;16.922;2023-05-10T01:59:28;6.72;;;4.93;;
76667;SDS011;65585;51.166;16.922;2023-05-10T02:01:57;7.47;;;5.60;;
76667;SDS011;65585;51.166;16.922;2023-05-10T02:04:25;10.35;;;5.78;;
76667;SDS011;65585;51.166;16.922;2023-05-10T02:06:52;11.20;;;6.53;;
76667;SDS011;65585;51.166;16.922;2023-05-10T02:09:19;9.25;;;6.13;;
76667;SDS011;65585;51.166;16.922;2023-05-10T02:11:46;10.88;;;6.40;;
76667;SDS011;65585;51.166;16.922;2023-05-10T02:14:14;9.77;;;5.72;;
76667;SDS011;65585;51.166;16.922;2023-05-10T02:16:41;9.32;;;6.30;;
76667;SDS011;65585;51.166;16.922;2023-05-10T02:19:08;10.32;;;6.95;;
76667;SDS011;65585;51.166;16.922;2023-05-10T02:21:34;9.65;;;6.45;;
76667;SDS011;65585;51.166;16.922;2023-05-10T02:24:02;8.60;;;5.82;;
76667;SDS011;65585;51.166;16.922;2023-05-10T02:26:29;9.48;;;6.63;;
76667;SDS011;65585;51.166;16.922;2023-05-10T02:28:55;8.95;;;5.53;;
76667;SDS011;65585;51.166;16.922;2023-05-10T02:31:22;9.30;;;5.95;;
76667;SDS011;65585;51.166;16.922;2023-05-10T02:33:49;8.20;;;5.63;;
76667;SDS011;65585;51.166;16.922;2023-05-10T02:36:15;10.00;;;6.22;;
76667;SDS011;65585;51.166;16.922;2023-05-10T02:38:43;10.55;;;6.75;;
76667;SDS011;65585;51.166;16.922;2023-05-10T02:41:10;9.80;;;6.10;;
76667;SDS011;65585;51.166;16.922;2023-05-10T02:43:37;9.40;;;5.47;;
76667;SDS011;65585;51.166;16.922;2023-05-10T02:46:06;10.68;;;5.80;;
76667;SDS011;65585;51.166;16.922;2023-05-10T02:48:33;9.02;;;6.18;;
76667;SDS011;65585;51.166;16.922;2023-05-10T02:51:00;8.95;;;6.07;;
76667;SDS011;65585;51.166;16.922;2023-05-10T02:53:31;9.73;;;5.68;;
76667;SDS011;65585;51.166;16.922;2023-05-10T02:55:58;8.50;;;5.28;;
76667;SDS011;65585;51.166;16.922;2023-05-10T02:58:26;11.77;;;6.68;;
76667;SDS011;65585;51.166;16.922;2023-05-10T03:00:52;12.15;;;6.45;;
76667;SDS011;65585;51.166;16.922;2023-05-10T03:03:19;9.70;;;6.72;;
76667;SDS011;65585;51.166;16.922;2023-05-10T03:05:45;10.15;;;6.22;;
76667;SDS011;65585;51.166;16.922;2023-05-10T03:08:11;8.32;;;6.35;;
76667;SDS011;65585;51.166;16.922;2023-05-10T03:10:41;10.50;;;6.50;;
76667;SDS011;65585;51.166;16.922;2023-05-10T03:16:15;9.23;;;6.40;;
76667;SDS011;65585;51.166;16.922;2023-05-10T03:21:14;8.23;;;5.55;;
76667;SDS011;65585;51.166;16.922;2023-05-10T03:23:45;7.53;;;5.80;;
76667;SDS011;65585;51.166;16.922;2023-05-10T03:26:16;8.48;;;5.57;;
76667;SDS011;65585;51.166;16.922;2023-05-10T03:28:44;14.38;;;6.72;;
76667;SDS011;65585;51.166;16.922;2023-05-10T03:31:11;9.35;;;6.43;;
76667;SDS011;65585;51.166;16.922;2023-05-10T03:33:56;9.70;;;6.07;;
76667;SDS011;65585;51.166;16.922;2023-05-10T03:36:22;9.23;;;6.22;;
76667;SDS011;65585;51.166;16.922;2023-05-10T03:38:48;10.00;;;6.28;;
76667;SDS011;65585;51.166;16.922;2023-05-10T03:41:14;8.45;;;5.78;;
76667;SDS011;65585;51.166;16.922;2023-05-10T03:43:41;10.25;;;6.35;;
76667;SDS011;65585;51.166;16.922;2023-05-10T03:46:07;10.35;;;6.82;;
76667;SDS011;65585;51.166;16.922;2023-05-10T03:48:33;9.07;;;5.95;;
76667;SDS011;65585;51.166;16.922;2023-05-10T03:51:00;9.70;;;6.28;;
76667;SDS011;65585;51.166;16.922;2023-05-10T03:53:27;9.02;;;5.68;;
76667;SDS011;65585;51.166;16.922;2023-05-10T03:55:52;8.68;;;5.55;;
76667;SDS011;65585;51.166;16.922;2023-05-10T03:58:19;11.82;;;6.30;;
76667;SDS011;65585;51.166;16.922;2023-05-10T04:00:45;9.77;;;6.15;;
76667;SDS011;65585;51.166;16.922;2023-05-10T04:03:11;9.25;;;6.22;;
76667;SDS011;65585;51.166;16.922;2023-05-10T04:05:37;10.30;;;5.63;;
76667;SDS011;65585;51.166;16.922;2023-05-10T04:08:04;9.93;;;5.50;;
76667;SDS011;65585;51.166;16.922;2023-05-10T04:10:30;9.77;;;6.25;;
76667;SDS011;65585;51.166;16.922;2023-05-10T04:12:57;9.40;;;5.82;;
76667;SDS011;65585;51.166;16.922;2023-05-10T04:15:23;7.45;;;5.05;;
76667;SDS011;65585;51.166;16.922;2023-05-10T04:17:49;9.10;;;5.43;;
76667;SDS011;65585;51.166;16.922;2023-05-10T04:20:15;7.95;;;5.45;;
76667;SDS011;65585;51.166;16.922;2023-05-10T04:22:42;9.35;;;5.50;;
76667;SDS011;65585;51.166;16.922;2023-05-10T04:25:08;8.05;;;5.80;;
76667;SDS011;65585;51.166;16.922;2023-05-10T04:27:35;10.32;;;5.18;;
76667;SDS011;65585;51.166;16.922;2023-05-10T04:30:03;12.65;;;5.75;;
76667;SDS011;65585;51.166;16.922;2023-05-10T04:32:30;14.38;;;6.40;;
76667;SDS011;65585;51.166;16.922;2023-05-10T04:34:57;7.50;;;4.80;;
76667;SDS011;65585;51.166;16.922;2023-05-10T04:37:23;7.82;;;5.45;;
76667;SDS011;65585;51.166;16.922;2023-05-10T04:39:49;8.63;;;5.18;;
76667;SDS011;65585;51.166;16.922;2023-05-10T04:42:16;7.93;;;5.35;;
76667;SDS011;65585;51.166;16.922;2023-05-10T04:44:42;7.78;;;5.47;;
76667;SDS011;65585;51.166;16.922;2023-05-10T04:47:09;6.90;;;4.90;;
76667;SDS011;65585;51.166;16.922;2023-05-10T04:49:35;9.23;;;5.38;;
76667;SDS011;65585;51.166;16.922;2023-05-10T04:52:01;8.93;;;5.38;;
76667;SDS011;65585;51.166;16.922;2023-05-10T04:54:27;10.98;;;4.80;;
76667;SDS011;65585;51.166;16.922;2023-05-10T04:56:54;9.15;;;4.68;;
76667;SDS011;65585;51.166;16.922;2023-05-10T04:59:20;10.05;;;4.97;;
76667;SDS011;65585;51.166;16.922;2023-05-10T05:01:46;7.93;;;5.03;;
76667;SDS011;65585;51.166;16.922;2023-05-10T05:04:12;7.43;;;4.85;;
76667;SDS011;65585;51.166;16.922;2023-05-10T05:06:40;6.72;;;4.55;;
76667;SDS011;65585;51.166;16.922;2023-05-10T05:09:06;9.13;;;5.07;;
76667;SDS011;65585;51.166;16.922;2023-05-10T05:11:32;7.28;;;4.57;;
76667;SDS011;65585;51.166;16.922;2023-05-10T05:13:58;7.22;;;5.28;;
76667;SDS011;65585;51.166;16.922;2023-05-10T05:16:25;11.68;;;4.85;;
76667;SDS011;65585;51.166;16.922;2023-05-10T05:18:51;9.25;;;4.47;;
76667;SDS011;65585;51.166;16.922;2023-05-10T05:21:18;7.07;;;5.10;;
76667;SDS011;65585;51.166;16.922;2023-05-10T05:23:45;6.45;;;4.47;;
76667;SDS011;65585;51.166;16.922;2023-05-10T05:26:12;7.35;;;4.40;;
76667;SDS011;65585;51.166;16.922;2023-05-10T05:28:38;8.18;;;4.45;;
76667;SDS011;65585;51.166;16.922;2023-05-10T05:31:05;6.70;;;4.70;;
76667;SDS011;65585;51.166;16.922;2023-05-10T05:33:31;9.55;;;5.00;;
76667;SDS011;65585;51.166;16.922;2023-05-10T05:35:59;8.43;;;4.88;;
76667;SDS011;65585;51.166;16.922;2023-05-10T05:38:26;6.88;;;4.55;;
76667;SDS011;65585;51.166;16.922;2023-05-10T05:40:52;7.53;;;4.75;;
76667;SDS011;65585;51.166;16.922;2023-05-10T05:43:18;8.43;;;4.35;;
76667;SDS011;65585;51.166;16.922;2023-05-10T05:45:44;7.43;;;4.53;;
76667;SDS011;65585;51.166;16.922;2023-05-10T05:48:10;5.68;;;4.05;;
76667;SDS011;65585;51.166;16.922;2023-05-10T05:50:37;6.65;;;4.63;;
76667;SDS011;65585;51.166;16.922;2023-05-10T05:53:03;8.18;;;4.53;;
76667;SDS011;65585;51.166;16.922;2023-05-10T05:55:29;11.75;;;5.35;;
76667;SDS011;65585;51.166;16.922;2023-05-10T05:57:57;8.70;;;4.93;;
76667;SDS011;65585;51.166;16.922;2023-05-10T06:00:23;9.55;;;4.57;;
76667;SDS011;65585;51.166;16.922;2023-05-10T06:02:50;8.00;;;5.10;;
76667;SDS011;65585;51.166;16.922;2023-05-10T06:05:16;6.15;;;4.40;;
76667;SDS011;65585;51.166;16.922;2023-05-10T06:07:43;7.55;;;4.80;;
76667;SDS011;65585;51.166;16.922;2023-05-10T06:10:09;8.55;;;4.25;;
76667;SDS011;65585;51.166;16.922;2023-05-10T06:12:35;10.25;;;4.53;;
76667;SDS011;65585;51.166;16.922;2023-05-10T06:15:04;7.18;;;4.65;;
76667;SDS011;65585;51.166;16.922;2023-05-10T06:17:31;9.70;;;4.72;;
76667;SDS011;65585;51.166;16.922;2023-05-10T06:19:57;9.75;;;4.60;;
76667;SDS011;65585;51.166;16.922;2023-05-10T06:22:23;8.30;;;4.60;;
76667;SDS011;65585;51.166;16.922;2023-05-10T06:24:50;10.63;;;4.70;;
76667;SDS011;65585;51.166;16.922;2023-05-10T06:27:16;6.63;;;4.38;;
76667;SDS011;65585;51.166;16.922;2023-05-10T06:29:42;7.93;;;4.53;;
76667;SDS011;65585;51.166;16.922;2023-05-10T06:32:08;6.93;;;4.40;;
76667;SDS011;65585;51.166;16.922;2023-05-10T06:34:34;8.93;;;4.47;;
76667;SDS011;65585;51.166;16.922;2023-05-10T06:37:01;7.63;;;4.55;;
76667;SDS011;65585;51.166;16.922;2023-05-10T06:39:28;9.65;;;4.65;;
76667;SDS011;65585;51.166;16.922;2023-05-10T06:41:55;5.63;;;4.30;;
76667;SDS011;65585;51.166;16.922;2023-05-10T06:44:21;7.00;;;4.95;;
76667;SDS011;65585;51.166;16.922;2023-05-10T06:46:47;7.75;;;4.30;;
76667;SDS011;65585;51.166;16.922;2023-05-10T06:49:16;7.45;;;4.10;;
76667;SDS011;65585;51.166;16.922;2023-05-10T06:51:43;8.68;;;4.88;;
76667;SDS011;65585;51.166;16.922;2023-05-10T06:54:09;7.53;;;4.47;;
76667;SDS011;65585;51.166;16.922;2023-05-10T06:56:35;6.25;;;4.22;;
76667;SDS011;65585;51.166;16.922;2023-05-10T06:59:04;8.52;;;4.43;;
76667;SDS011;65585;51.166;16.922;2023-05-10T07:01:31;6.53;;;4.30;;
76667;SDS011;65585;51.166;16.922;2023-05-10T07:03:56;6.47;;;4.50;;
76667;SDS011;65585;51.166;16.922;2023-05-10T07:06:23;6.60;;;4.18;;
76667;SDS011;65585;51.166;16.922;2023-05-10T07:08:49;6.20;;;4.07;;
76667;SDS011;65585;51.166;16.922;2023-05-10T07:11:15;5.55;;;4.03;;
76667;SDS011;65585;51.166;16.922;2023-05-10T07:13:41;6.60;;;4.18;;
76667;SDS011;65585;51.166;16.922;2023-05-10T07:16:10;6.47;;;4.05;;
76667;SDS011;65585;51.166;16.922;2023-05-10T07:18:36;6.40;;;4.03;;
76667;SDS011;65585;51.166;16.922;2023-05-10T07:21:03;4.60;;;4.03;;
76667;SDS011;65585;51.166;16.922;2023-05-10T07:23:29;7.50;;;3.80;;
76667;SDS011;65585;51.166;16.922;2023-05-10T07:25:55;5.45;;;4.07;;
76667;SDS011;65585;51.166;16.922;2023-05-10T07:28:23;7.18;;;3.63;;
76667;SDS011;65585;51.166;16.922;2023-05-10T07:30:52;5.68;;;3.70;;
76667;SDS011;65585;51.166;16.922;2023-05-10T07:33:18;6.78;;;3.80;;
76667;SDS011;65585;51.166;16.922;2023-05-10T07:35:45;8.75;;;4.38;;
76667;SDS011;65585;51.166;16.922;2023-05-10T07:38:11;6.03;;;4.20;;
76667;SDS011;65585;51.166;16.922;2023-05-10T07:40:39;7.40;;;3.67;;
76667;SDS011;65585;51.166;16.922;2023-05-10T07:43:05;5.70;;;3.70;;
76667;SDS011;65585;51.166;16.922;2023-05-10T07:45:31;7.95;;;4.43;;
76667;SDS011;65585;51.166;16.922;2023-05-10T07:47:58;5.95;;;3.90;;
76667;SDS011;65585;51.166;16.922;2023-05-10T07:50:25;7.15;;;3.50;;
76667;SDS011;65585;51.166;16.922;2023-05-10T07:52:51;8.00;;;4.20;;
76667;SDS011;65585;51.166;16.922;2023-05-10T07:55:18;5.85;;;3.95;;
76667;SDS011;65585;51.166;16.922;2023-05-10T07:57:44;6.40;;;3.70;;
76667;SDS011;65585;51.166;16.922;2023-05-10T08:00:13;5.55;;;3.70;;
76667;SDS011;65585;51.166;16.922;2023-05-10T08:02:43;6.75;;;3.78;;
76667;SDS011;65585;51.166;16.922;2023-05-10T08:05:09;5.60;;;3.75;;
76667;SDS011;65585;51.166;16.922;2023-05-10T08:07:36;7.18;;;4.00;;
76667;SDS011;65585;51.166;16.922;2023-05-10T08:10:02;5.22;;;3.58;;
76667;SDS011;65585;51.166;16.922;2023-05-10T08:12:29;6.22;;;3.35;;
76667;SDS011;65585;51.166;16.922;2023-05-10T08:14:56;5.35;;;4.40;;
76667;SDS011;65585;51.166;16.922;2023-05-10T08:17:22;8.57;;;3.60;;
76667;SDS011;65585;51.166;16.922;2023-05-10T08:19:48;5.40;;;3.92;;
76667;SDS011;65585;51.166;16.922;2023-05-10T08:22:14;5.40;;;3.75;;
76667;SDS011;65585;51.166;16.922;2023-05-10T08:24:41;6.80;;;3.88;;
76667;SDS011;65585;51.166;16.922;2023-05-10T08:27:07;5.15;;;3.80;;
76667;SDS011;65585;51.166;16.922;2023-05-10T08:29:34;4.57;;;3.45;;
76667;SDS011;65585;51.166;16.922;2023-05-10T08:32:00;5.28;;;3.60;;
76667;SDS011;65585;51.166;16.922;2023-05-10T08:34:27;4.72;;;3.33;;
76667;SDS011;65585;51.166;16.922;2023-05-10T08:36:53;5.22;;;3.40;;
76667;SDS011;65585;51.166;16.922;2023-05-10T08:39:19;6.82;;;3.60;;
76667;SDS011;65585;51.166;16.922;2023-05-10T08:41:45;4.40;;;3.10;;
76667;SDS011;65585;51.166;16.922;2023-05-10T08:44:12;7.70;;;3.30;;
76667;SDS011;65585;51.166;16.922;2023-05-10T08:46:39;4.65;;;3.22;;
76667;SDS011;65585;51.166;16.922;2023-05-10T08:49:09;4.70;;;3.65;;
76667;SDS011;65585;51.166;16.922;2023-05-10T08:51:36;5.85;;;3.53;;
76667;SDS011;65585;51.166;16.922;2023-05-10T08:54:06;6.53;;;3.67;;
76667;SDS011;65585;51.166;16.922;2023-05-10T08:56:32;9.85;;;3.63;;
76667;SDS011;65585;51.166;16.922;2023-05-10T08:58:58;5.38;;;3.00;;
76667;SDS011;65585;51.166;16.922;2023-05-10T09:01:25;4.13;;;2.97;;
76667;SDS011;65585;51.166;16.922;2023-05-10T09:03:51;5.50;;;3.50;;
76667;SDS011;65585;51.166;16.922;2023-05-10T09:06:17;8.30;;;3.35;;
76667;SDS011;65585;51.166;16.922;2023-05-10T09:08:44;5.32;;;3.33;;
76667;SDS011;65585;51.166;16.922;2023-05-10T09:11:11;4.40;;;3.17;;
76667;SDS011;65585;51.166;16.922;2023-05-10T09:13:38;5.20;;;2.83;;
76667;SDS011;65585;51.166;16.922;2023-05-10T09:16:04;5.00;;;3.17;;
76667;SDS011;65585;51.166;16.922;2023-05-10T09:18:31;5.07;;;3.20;;
76667;SDS011;65585;51.166;16.922;2023-05-10T09:20:57;5.25;;;3.33;;
76667;SDS011;65585;51.166;16.922;2023-05-10T09:23:23;6.50;;;3.15;;
76667;SDS011;65585;51.166;16.922;2023-05-10T09:26:04;6.88;;;3.20;;
76667;SDS011;65585;51.166;16.922;2023-05-10T09:28:31;4.18;;;3.28;;
76667;SDS011;65585;51.166;16.922;2023-05-10T09:30:58;4.35;;;2.92;;
76667;SDS011;65585;51.166;16.922;2023-05-10T09:33:25;3.83;;;2.80;;
76667;SDS011;65585;51.166;16.922;2023-05-10T09:35:51;5.53;;;3.20;;
76667;SDS011;65585;51.166;16.922;2023-05-10T09:38:18;4.28;;;3.45;;
76667;SDS011;65585;51.166;16.922;2023-05-10T09:40:50;3.55;;;2.85;;
76667;SDS011;65585;51.166;16.922;2023-05-10T09:43:21;3.80;;;2.83;;
76667;SDS011;65585;51.166;16.922;2023-05-10T09:45:47;6.05;;;3.50;;
76667;SDS011;65585;51.166;16.922;2023-05-10T09:48:15;6.43;;;3.40;;
76667;SDS011;65585;51.166;16.922;2023-05-10T09:50:41;4.10;;;3.20;;
76667;SDS011;65585;51.166;16.922;2023-05-10T09:53:07;4.35;;;3.13;;
76667;SDS011;65585;51.166;16.922;2023-05-10T09:55:44;7.60;;;3.63;;
76667;SDS011;65585;51.166;16.922;2023-05-10T09:58:14;5.38;;;2.78;;
76667;SDS011;65585;51.166;16.922;2023-05-10T10:00:41;5.70;;;2.92;;
76667;SDS011;65585;51.166;16.922;2023-05-10T10:03:16;3.95;;;3.13;;
76667;SDS011;65585;51.166;16.922;2023-05-10T10:05:44;6.40;;;3.47;;
76667;SDS011;65585;51.166;16.922;2023-05-10T10:08:11;4.78;;;3.20;;
76667;SDS011;65585;51.166;16.922;2023-05-10T10:10:38;7.13;;;3.30;;
76667;SDS011;65585;51.166;16.922;2023-05-10T10:13:07;3.35;;;2.95;;
76667;SDS011;65585;51.166;16.922;2023-05-10T10:15:34;4.80;;;3.17;;
76667;SDS011;65585;51.166;16.922;2023-05-10T10:18:02;6.50;;;3.65;;
76667;SDS011;65585;51.166;16.922;2023-05-10T10:20:31;3.97;;;3.03;;
76667;SDS011;65585;51.166;16.922;2023-05-10T10:22:58;5.78;;;3.30;;
76667;SDS011;65585;51.166;16.922;2023-05-10T10:25:24;4.07;;;3.35;;
76667;SDS011;65585;51.166;16.922;2023-05-10T10:35:57;6.43;;;2.72;;
76667;SDS011;65585;51.166;16.922;2023-05-10T10:38:25;6.25;;;3.10;;
76667;SDS011;65585;51.166;16.922;2023-05-10T10:41:26;4.88;;;3.22;;
76667;SDS011;65585;51.166;16.922;2023-05-10T10:49:48;5.13;;;2.80;;
76667;SDS011;65585;51.166;16.922;2023-05-10T10:52:23;6.72;;;3.20;;
76667;SDS011;65585;51.166;16.922;2023-05-10T10:54:58;4.13;;;2.65;;
76667;SDS011;65585;51.166;16.922;2023-05-10T10:57:57;3.63;;;2.92;;
76667;SDS011;65585;51.166;16.922;2023-05-10T11:07:55;6.45;;;2.70;;
76667;SDS011;65585;51.166;16.922;2023-05-10T11:10:22;5.78;;;3.70;;
76667;SDS011;65585;51.166;16.922;2023-05-10T11:15:19;4.22;;;2.80;;
76667;SDS011;65585;51.166;16.922;2023-05-10T11:17:47;3.58;;;3.10;;
76667;SDS011;65585;51.166;16.922;2023-05-10T11:20:17;4.18;;;2.92;;
76667;SDS011;65585;51.166;16.922;2023-05-10T11:22:54;5.43;;;3.65;;
76667;SDS011;65585;51.166;16.922;2023-05-10T11:25:26;5.13;;;2.70;;
76667;SDS011;65585;51.166;16.922;2023-05-10T11:27:52;14.25;;;4.45;;
76667;SDS011;65585;51.166;16.922;2023-05-10T11:30:18;3.92;;;2.92;;
76667;SDS011;65585;51.166;16.922;2023-05-10T11:32:45;6.05;;;3.08;;
76667;SDS011;65585;51.166;16.922;2023-05-10T11:37:38;5.25;;;3.40;;
76667;SDS011;65585;51.166;16.922;2023-05-10T11:40:09;3.70;;;2.95;;
76667;SDS011;65585;51.166;16.922;2023-05-10T11:42:36;9.23;;;3.03;;
76667;SDS011;65585;51.166;16.922;2023-05-10T11:45:03;4.70;;;2.75;;
76667;SDS011;65585;51.166;16.922;2023-05-10T11:47:30;6.32;;;2.92;;
76667;SDS011;65585;51.166;16.922;2023-05-10T11:49:56;5.53;;;2.80;;
76667;SDS011;65585;51.166;16.922;2023-05-10T11:52:23;3.53;;;2.95;;
76667;SDS011;65585;51.166;16.922;2023-05-10T11:54:52;3.72;;;2.80;;
76667;SDS011;65585;51.166;16.922;2023-05-10T11:57:19;4.20;;;3.13;;
76667;SDS011;65585;51.166;16.922;2023-05-10T11:59:46;4.82;;;2.90;;
76667;SDS011;65585;51.166;16.922;2023-05-10T12:02:16;4.15;;;2.53;;
76667;SDS011;65585;51.166;16.922;2023-05-10T12:04:42;5.03;;;2.65;;
76667;SDS011;65585;51.166;16.922;2023-05-10T12:07:08;2.97;;;2.50;;
76667;SDS011;65585;51.166;16.922;2023-05-10T12:09:35;5.63;;;2.88;;
76667;SDS011;65585;51.166;16.922;2023-05-10T12:12:01;3.97;;;2.92;;
76667;SDS011;65585;51.166;16.922;2023-05-10T12:14:28;5.63;;;2.92;;
76667;SDS011;65585;51.166;16.922;2023-05-10T12:16:58;3.63;;;2.67;;
76667;SDS011;65585;51.166;16.922;2023-05-10T12:19:25;8.55;;;2.72;;
76667;SDS011;65585;51.166;16.922;2023-05-10T12:21:51;3.22;;;2.60;;
76667;SDS011;65585;51.166;16.922;2023-05-10T12:24:17;5.68;;;2.47;;
76667;SDS011;65585;51.166;16.922;2023-05-10T12:26:47;6.13;;;2.83;;
76667;SDS011;65585;51.166;16.922;2023-05-10T12:29:14;4.15;;;2.92;;
76667;SDS011;65585;51.166;16.922;2023-05-10T12:32:00;3.67;;;2.90;;
76667;SDS011;65585;51.166;16.922;2023-05-10T12:34:33;5.82;;;2.85;;
76667;SDS011;65585;51.166;16.922;2023-05-10T12:37:03;5.93;;;2.85;;
76667;SDS011;65585;51.166;16.922;2023-05-10T12:39:42;4.22;;;2.47;;
76667;SDS011;65585;51.166;16.922;2023-05-10T12:42:09;4.28;;;2.60;;
76667;SDS011;65585;51.166;16.922;2023-05-10T12:44:36;4.43;;;2.83;;
76667;SDS011;65585;51.166;16.922;2023-05-10T12:47:02;4.75;;;2.80;;
76667;SDS011;65585;51.166;16.922;2023-05-10T12:49:28;3.20;;;2.53;;
76667;SDS011;65585;51.166;16.922;2023-05-10T12:51:54;3.10;;;2.40;;
76667;SDS011;65585;51.166;16.922;2023-05-10T12:54:20;3.65;;;2.60;;
76667;SDS011;65585;51.166;16.922;2023-05-10T12:56:46;4.47;;;2.80;;
76667;SDS011;65585;51.166;16.922;2023-05-10T12:59:13;3.63;;;2.47;;
76667;SDS011;65585;51.166;16.922;2023-05-10T13:01:39;6.43;;;2.63;;
76667;SDS011;65585;51.166;16.922;2023-05-10T13:04:05;5.55;;;2.40;;
76667;SDS011;65585;51.166;16.922;2023-05-10T13:06:31;3.38;;;2.58;;
76667;SDS011;65585;51.166;16.922;2023-05-10T13:08:58;2.70;;;2.20;;
76667;SDS011;65585;51.166;16.922;2023-05-10T13:11:24;2.80;;;2.38;;
76667;SDS011;65585;51.166;16.922;2023-05-10T13:13:51;3.25;;;2.60;;
76667;SDS011;65585;51.166;16.922;2023-05-10T13:16:17;3.30;;;2.58;;
76667;SDS011;65585;51.166;16.922;2023-05-10T13:18:43;2.60;;;2.38;;
76667;SDS011;65585;51.166;16.922;2023-05-10T13:21:09;3.13;;;2.40;;
76667;SDS011;65585;51.166;16.922;2023-05-10T13:23:35;3.63;;;2.20;;
76667;SDS011;65585;51.166;16.922;2023-05-10T13:26:01;4.13;;;2.72;;
76667;SDS011;65585;51.166;16.922;2023-05-10T13:28:27;4.43;;;2.50;;
76667;SDS011;65585;51.166;16.922;2023-05-10T13:30:54;2.83;;;2.20;;
76667;SDS011;65585;51.166;16.922;2023-05-10T13:33:20;3.97;;;2.60;;
76667;SDS011;65585;51.166;16.922;2023-05-10T13:35:46;5.28;;;2.53;;
76667;SDS011;65585;51.166;16.922;2023-05-10T13:38:13;3.47;;;2.60;;
76667;SDS011;65585;51.166;16.922;2023-05-10T13:40:39;4.10;;;2.30;;
76667;SDS011;65585;51.166;16.922;2023-05-10T13:43:05;5.13;;;2.42;;
76667;SDS011;65585;51.166;16.922;2023-05-10T13:45:31;8.02;;;2.72;;
76667;SDS011;65585;51.166;16.922;2023-05-10T13:47:58;3.38;;;2.17;;
76667;SDS011;65585;51.166;16.922;2023-05-10T13:50:24;7.20;;;2.83;;
76667;SDS011;65585;51.166;16.922;2023-05-10T13:52:50;5.05;;;2.20;;
76667;SDS011;65585;51.166;16.922;2023-05-10T13:55:16;3.45;;;2.20;;
76667;SDS011;65585;51.166;16.922;2023-05-10T13:57:42;3.60;;;2.40;;
76667;SDS011;65585;51.166;16.922;2023-05-10T14:00:09;2.83;;;2.15;;
76667;SDS011;65585;51.166;16.922;2023-05-10T14:02:35;2.80;;;2.38;;
76667;SDS011;65585;51.166;16.922;2023-05-10T14:05:01;5.50;;;2.58;;
76667;SDS011;65585;51.166;16.922;2023-05-10T14:09:54;3.15;;;2.30;;
76667;SDS011;65585;51.166;16.922;2023-05-10T14:12:20;4.53;;;2.22;;
76667;SDS011;65585;51.166;16.922;2023-05-10T14:14:46;4.57;;;2.47;;
76667;SDS011;65585;51.166;16.922;2023-05-10T14:17:13;4.50;;;2.20;;
76667;SDS011;65585;51.166;16.922;2023-05-10T14:19:39;3.65;;;2.40;;
76667;SDS011;65585;51.166;16.922;2023-05-10T14:22:05;5.63;;;2.50;;
76667;SDS011;65585;51.166;16.922;2023-05-10T14:24:31;3.30;;;2.42;;
76667;SDS011;65585;51.166;16.922;2023-05-10T14:26:58;6.00;;;2.50;;
76667;SDS011;65585;51.166;16.922;2023-05-10T14:29:24;3.88;;;2.33;;
76667;SDS011;65585;51.166;16.922;2023-05-10T14:31:50;4.68;;;2.40;;
76667;SDS011;65585;51.166;16.922;2023-05-10T14:34:16;2.78;;;2.38;;
76667;SDS011;65585;51.166;16.922;2023-05-10T14:36:42;3.35;;;2.20;;
76667;SDS011;65585;51.166;16.922;2023-05-10T14:39:08;3.47;;;1.92;;
76667;SDS011;65585;51.166;16.922;2023-05-10T14:41:36;5.22;;;2.55;;
76667;SDS011;65585;51.166;16.922;2023-05-10T14:44:03;3.35;;;2.40;;
76667;SDS011;65585;51.166;16.922;2023-05-10T14:46:29;4.20;;;2.65;;
76667;SDS011;65585;51.166;16.922;2023-05-10T14:48:55;4.10;;;2.47;;
76667;SDS011;65585;51.166;16.922;2023-05-10T14:51:21;3.97;;;2.40;;
76667;SDS011;65585;51.166;16.922;2023-05-10T14:53:50;4.30;;;2.30;;
76667;SDS011;65585;51.166;16.922;2023-05-10T14:56:16;4.28;;;2.38;;
76667;SDS011;65585;51.166;16.922;2023-05-10T14:58:42;4.10;;;2.42;;
76667;SDS011;65585;51.166;16.922;2023-05-10T15:01:09;5.10;;;2.75;;
76667;SDS011;65585;51.166;16.922;2023-05-10T15:03:35;2.95;;;2.15;;
76667;SDS011;65585;51.166;16.922;2023-05-10T15:06:01;4.60;;;2.38;;
76667;SDS011;65585;51.166;16.922;2023-05-10T15:08:28;4.18;;;2.33;;
76667;SDS011;65585;51.166;16.922;2023-05-10T15:10:54;3.80;;;2.60;;
76667;SDS011;65585;51.166;16.922;2023-05-10T15:13:21;2.85;;;2.08;;
76667;SDS011;65585;51.166;16.922;2023-05-10T15:15:47;5.25;;;2.55;;
76667;SDS011;65585;51.166;16.922;2023-05-10T15:18:13;5.75;;;2.90;;
76667;SDS011;65585;51.166;16.922;2023-05-10T15:20:40;4.03;;;3.17;;
76667;SDS011;65585;51.166;16.922;2023-05-10T15:23:06;5.47;;;2.30;;
76667;SDS011;65585;51.166;16.922;2023-05-10T15:25:33;4.07;;;2.63;;
76667;SDS011;65585;51.166;16.922;2023-05-10T15:28:04;4.70;;;2.75;;